sensor_id;sensor_type;location;lat;lon;timestamp;temperature;humidity
30825;DHT22;17550;45.486;12.222;2023-05-10T00:02:10;16.20;99.90
30825;DHT22;17550;45.486;12.222;2023-05-10T00:04:35;16.10;99.90
30825;DHT22;17550;45.486;12.222;2023-05-10T00:07:01;16.10;99.90
30825;DHT22;17550;45.486;12.222;2023-05-10T00:09:27;16.00;99.90
30825;DHT22;17550;45.486;12.222;2023-05-10T00:11:52;16.00;99.90
30825;DHT22;17550;45.486;12.222;2023-05-10T00:14:18;16.00;99.90
30825;DHT22;17550;45.486;12.222;2023-05-10T00:16:44;16.00;99.90
30825;DHT22;17550;45.486;12.222;2023-05-10T00:19:10;15.90;99.90
30825;DHT22;17550;45.486;12.222;2023-05-10T00:21:36;15.90;99.90
30825;DHT22;17550;45.486;12.222;2023-05-10T00:24:02;15.90;99.90
30825;DHT22;17550;45.486;12.222;2023-05-10T00:26:27;15.90;99.90
30825;DHT22;17550;45.486;12.222;2023-05-10T00:28:53;15.80;99.90
30825;DHT22;17550;45.486;12.222;2023-05-10T00:31:19;15.80;99.90
30825;DHT22;17550;45.486;12.222;2023-05-10T00:33:44;15.90;99.90
30825;DHT22;17550;45.486;12.222;2023-05-10T00:36:10;15.80;99.90
30825;DHT22;17550;45.486;12.222;2023-05-10T00:38:36;15.80;99.90
30825;DHT22;17550;45.486;12.222;2023-05-10T00:41:02;15.80;99.90
30825;DHT22;17550;45.486;12.222;2023-05-10T00:43:28;15.80;99.90
30825;DHT22;17550;45.486;12.222;2023-05-10T00:45:54;15.80;99.90
30825;DHT22;17550;45.486;12.222;2023-05-10T00:48:20;15.70;99.90
30825;DHT22;17550;45.486;12.222;2023-05-10T00:50:46;15.70;99.90
30825;DHT22;17550;45.486;12.222;2023-05-10T00:53:12;15.70;99.90
30825;DHT22;17550;45.486;12.222;2023-05-10T00:55:38;15.70;99.90
30825;DHT22;17550;45.486;12.222;2023-05-10T00:58:04;15.70;99.90
30825;DHT22;17550;45.486;12.222;2023-05-10T01:00:32;15.70;99.90
30825;DHT22;17550;45.486;12.222;2023-05-10T01:02:58;15.70;99.90
30825;DHT22;17550;45.486;12.222;2023-05-10T01:05:24;15.70;99.90
30825;DHT22;17550;45.486;12.222;2023-05-10T01:07:51;15.70;99.90
30825;DHT22;17550;45.486;12.222;2023-05-10T01:10:16;15.60;99.90
30825;DHT22;17550;45.486;12.222;2023-05-10T01:12:44;15.70;99.90
30825;DHT22;17550;45.486;12.222;2023-05-10T01:15:11;15.60;99.90
30825;DHT22;17550;45.486;12.222;2023-05-10T01:17:39;15.60;99.90
30825;DHT22;17550;45.486;12.222;2023-05-10T01:20:07;15.60;99.90
30825;DHT22;17550;45.486;12.222;2023-05-10T01:32:31;15.60;99.90
30825;DHT22;17550;45.486;12.222;2023-05-10T01:37:34;15.60;99.70
30825;DHT22;17550;45.486;12.222;2023-05-10T01:42:53;15.60;99.90
30825;DHT22;17550;45.486;12.222;2023-05-10T01:45:28;15.60;99.70
30825;DHT22;17550;45.486;12.222;2023-05-10T01:48:08;15.50;99.70
30825;DHT22;17550;45.486;12.222;2023-05-10T01:50:37;15.50;99.60
30825;DHT22;17550;45.486;12.222;2023-05-10T01:53:06;15.50;99.60
30825;DHT22;17550;45.486;12.222;2023-05-10T01:55:38;15.50;99.80
30825;DHT22;17550;45.486;12.222;2023-05-10T01:58:14;15.50;99.80
30825;DHT22;17550;45.486;12.222;2023-05-10T02:00:43;15.50;99.90
30825;DHT22;17550;45.486;12.222;2023-05-10T02:03:11;15.50;99.90
30825;DHT22;17550;45.486;12.222;2023-05-10T02:05:38;15.40;99.90
30825;DHT22;17550;45.486;12.222;2023-05-10T02:08:06;15.40;99.90
30825;DHT22;17550;45.486;12.222;2023-05-10T02:10:35;15.40;99.90
30825;DHT22;17550;45.486;12.222;2023-05-10T02:13:02;15.40;99.90
30825;DHT22;17550;45.486;12.222;2023-05-10T02:15:29;15.40;99.90
30825;DHT22;17550;45.486;12.222;2023-05-10T02:17:58;15.40;99.90
30825;DHT22;17550;45.486;12.222;2023-05-10T02:20:26;15.40;99.90
30825;DHT22;17550;45.486;12.222;2023-05-10T02:22:54;15.40;99.90
30825;DHT22;17550;45.486;12.222;2023-05-10T02:25:21;15.40;99.90
30825;DHT22;17550;45.486;12.222;2023-05-10T02:27:49;15.30;99.90
30825;DHT22;17550;45.486;12.222;2023-05-10T02:30:16;15.40;99.90
30825;DHT22;17550;45.486;12.222;2023-05-10T02:32:44;15.30;99.90
30825;DHT22;17550;45.486;12.222;2023-05-10T02:35:11;15.30;99.90
30825;DHT22;17550;45.486;12.222;2023-05-10T02:37:38;15.30;99.90
30825;DHT22;17550;45.486;12.222;2023-05-10T02:40:06;15.30;99.90
30825;DHT22;17550;45.486;12.222;2023-05-10T02:42:35;15.30;99.90
30825;DHT22;17550;45.486;12.222;2023-05-10T02:45:07;15.30;99.90
30825;DHT22;17550;45.486;12.222;2023-05-10T02:47:33;15.20;99.90
30825;DHT22;17550;45.486;12.222;2023-05-10T02:50:00;15.20;99.90
30825;DHT22;17550;45.486;12.222;2023-05-10T02:52:30;15.20;99.90
30825;DHT22;17550;45.486;12.222;2023-05-10T02:55:03;15.10;99.90
30825;DHT22;17550;45.486;12.222;2023-05-10T02:57:33;15.00;99.90
30825;DHT22;17550;45.486;12.222;2023-05-10T02:59:59;15.00;99.90
30825;DHT22;17550;45.486;12.222;2023-05-10T03:02:26;15.00;99.90
30825;DHT22;17550;45.486;12.222;2023-05-10T03:04:52;15.00;99.90
30825;DHT22;17550;45.486;12.222;2023-05-10T03:07:18;14.90;99.90
30825;DHT22;17550;45.486;12.222;2023-05-10T03:09:47;14.90;99.90
30825;DHT22;17550;45.486;12.222;2023-05-10T03:18:04;14.90;99.90
30825;DHT22;17550;45.486;12.222;2023-05-10T03:20:36;14.90;99.90
30825;DHT22;17550;45.486;12.222;2023-05-10T03:23:37;14.90;99.90
30825;DHT22;17550;45.486;12.222;2023-05-10T03:26:07;14.90;99.90
30825;DHT22;17550;45.486;12.222;2023-05-10T03:28:35;14.90;99.90
30825;DHT22;17550;45.486;12.222;2023-05-10T03:31:02;14.80;99.90
30825;DHT22;17550;45.486;12.222;2023-05-10T03:33:29;14.80;99.90
30825;DHT22;17550;45.486;12.222;2023-05-10T03:35:54;14.70;99.90
30825;DHT22;17550;45.486;12.222;2023-05-10T03:38:20;14.70;99.90
30825;DHT22;17550;45.486;12.222;2023-05-10T03:40:46;14.70;99.90
30825;DHT22;17550;45.486;12.222;2023-05-10T03:43:11;14.60;99.90
30825;DHT22;17550;45.486;12.222;2023-05-10T03:45:37;14.60;99.90
30825;DHT22;17550;45.486;12.222;2023-05-10T03:48:03;14.60;99.90
30825;DHT22;17550;45.486;12.222;2023-05-10T03:50:29;14.60;99.90
30825;DHT22;17550;45.486;12.222;2023-05-10T03:52:54;14.50;99.90
30825;DHT22;17550;45.486;12.222;2023-05-10T03:55:20;14.50;99.90
30825;DHT22;17550;45.486;12.222;2023-05-10T03:57:46;14.50;99.90
30825;DHT22;17550;45.486;12.222;2023-05-10T04:00:12;14.50;99.90
30825;DHT22;17550;45.486;12.222;2023-05-10T04:02:38;14.50;99.90
30825;DHT22;17550;45.486;12.222;2023-05-10T04:05:04;14.40;99.90
30825;DHT22;17550;45.486;12.222;2023-05-10T04:07:32;14.40;99.90
30825;DHT22;17550;45.486;12.222;2023-05-10T04:09:58;14.40;99.90
30825;DHT22;17550;45.486;12.222;2023-05-10T04:12:24;14.30;99.90
30825;DHT22;17550;45.486;12.222;2023-05-10T04:14:49;14.30;99.90
30825;DHT22;17550;45.486;12.222;2023-05-10T04:17:16;14.30;99.90
30825;DHT22;17550;45.486;12.222;2023-05-10T04:19:42;14.20;99.90
30825;DHT22;17550;45.486;12.222;2023-05-10T04:22:07;14.20;99.90
30825;DHT22;17550;45.486;12.222;2023-05-10T04:24:33;14.20;99.90
30825;DHT22;17550;45.486;12.222;2023-05-10T04:26:59;14.20;99.90
30825;DHT22;17550;45.486;12.222;2023-05-10T04:29:25;14.10;99.90
30825;DHT22;17550;45.486;12.222;2023-05-10T04:31:52;14.10;99.90
30825;DHT22;17550;45.486;12.222;2023-05-10T04:34:20;14.10;99.90
30825;DHT22;17550;45.486;12.222;2023-05-10T04:36:46;14.10;99.90
30825;DHT22;17550;45.486;12.222;2023-05-10T04:39:12;14.10;99.90
30825;DHT22;17550;45.486;12.222;2023-05-10T04:41:39;14.10;99.90
30825;DHT22;17550;45.486;12.222;2023-05-10T04:44:04;14.20;99.90
30825;DHT22;17550;45.486;12.222;2023-05-10T04:46:30;14.10;99.90
30825;DHT22;17550;45.486;12.222;2023-05-10T04:48:56;14.20;99.90
30825;DHT22;17550;45.486;12.222;2023-05-10T04:51:22;14.10;99.90
30825;DHT22;17550;45.486;12.222;2023-05-10T04:53:47;14.20;99.90
30825;DHT22;17550;45.486;12.222;2023-05-10T04:56:13;14.20;99.90
30825;DHT22;17550;45.486;12.222;2023-05-10T04:58:39;14.20;99.90
30825;DHT22;17550;45.486;12.222;2023-05-10T05:01:06;14.20;99.90
30825;DHT22;17550;45.486;12.222;2023-05-10T05:03:32;14.20;99.90
30825;DHT22;17550;45.486;12.222;2023-05-10T05:05:58;14.20;99.90
30825;DHT22;17550;45.486;12.222;2023-05-10T05:08:24;14.20;99.90
30825;DHT22;17550;45.486;12.222;2023-05-10T05:10:50;14.20;99.90
30825;DHT22;17550;45.486;12.222;2023-05-10T05:13:16;14.20;99.90
30825;DHT22;17550;45.486;12.222;2023-05-10T05:15:42;14.20;99.90
30825;DHT22;17550;45.486;12.222;2023-05-10T05:18:07;14.20;99.90
30825;DHT22;17550;45.486;12.222;2023-05-10T05:20:33;14.20;99.90
30825;DHT22;17550;45.486;12.222;2023-05-10T05:23:00;14.10;99.90
30825;DHT22;17550;45.486;12.222;2023-05-10T05:25:25;14.20;99.90
30825;DHT22;17550;45.486;12.222;2023-05-10T05:27:51;14.20;99.90
30825;DHT22;17550;45.486;12.222;2023-05-10T05:30:17;14.20;99.90
30825;DHT22;17550;45.486;12.222;2023-05-10T05:32:43;14.20;99.90
30825;DHT22;17550;45.486;12.222;2023-05-10T05:35:08;14.10;99.90
30825;DHT22;17550;45.486;12.222;2023-05-10T05:37:34;14.10;99.90
30825;DHT22;17550;45.486;12.222;2023-05-10T05:40:01;14.10;99.90
30825;DHT22;17550;45.486;12.222;2023-05-10T05:42:27;14.00;99.90
30825;DHT22;17550;45.486;12.222;2023-05-10T05:44:53;13.90;99.90
30825;DHT22;17550;45.486;12.222;2023-05-10T05:47:18;14.00;99.90
30825;DHT22;17550;45.486;12.222;2023-05-10T05:49:44;14.00;99.90
30825;DHT22;17550;45.486;12.222;2023-05-10T05:52:13;14.00;99.90
30825;DHT22;17550;45.486;12.222;2023-05-10T05:54:38;13.90;99.90
30825;DHT22;17550;45.486;12.222;2023-05-10T05:57:04;13.90;99.90
30825;DHT22;17550;45.486;12.222;2023-05-10T05:59:30;13.90;99.90
30825;DHT22;17550;45.486;12.222;2023-05-10T06:01:56;13.90;99.90
30825;DHT22;17550;45.486;12.222;2023-05-10T06:04:21;13.90;99.90
30825;DHT22;17550;45.486;12.222;2023-05-10T06:06:47;13.90;99.90
30825;DHT22;17550;45.486;12.222;2023-05-10T06:09:13;13.90;99.90
30825;DHT22;17550;45.486;12.222;2023-05-10T06:11:38;13.90;99.90
30825;DHT22;17550;45.486;12.222;2023-05-10T06:14:04;13.90;99.90
30825;DHT22;17550;45.486;12.222;2023-05-10T06:16:32;13.80;99.90
30825;DHT22;17550;45.486;12.222;2023-05-10T06:18:58;13.80;99.90
30825;DHT22;17550;45.486;12.222;2023-05-10T06:21:24;13.80;99.90
30825;DHT22;17550;45.486;12.222;2023-05-10T06:23:49;13.80;99.90
30825;DHT22;17550;45.486;12.222;2023-05-10T06:26:15;13.80;99.90
30825;DHT22;17550;45.486;12.222;2023-05-10T06:28:41;13.90;99.90
30825;DHT22;17550;45.486;12.222;2023-05-10T06:31:07;13.90;99.90
30825;DHT22;17550;45.486;12.222;2023-05-10T06:33:33;13.80;99.90
30825;DHT22;17550;45.486;12.222;2023-05-10T06:35:59;13.80;99.90
30825;DHT22;17550;45.486;12.222;2023-05-10T06:38:24;13.70;99.90
30825;DHT22;17550;45.486;12.222;2023-05-10T06:40:50;13.70;99.90
30825;DHT22;17550;45.486;12.222;2023-05-10T06:43:16;13.70;99.90
30825;DHT22;17550;45.486;12.222;2023-05-10T06:45:42;13.70;99.90
30825;DHT22;17550;45.486;12.222;2023-05-10T06:48:08;13.80;99.90
30825;DHT22;17550;45.486;12.222;2023-05-10T06:50:34;13.80;99.90
30825;DHT22;17550;45.486;12.222;2023-05-10T06:53:00;13.80;99.90
30825;DHT22;17550;45.486;12.222;2023-05-10T06:55:27;13.90;99.90
30825;DHT22;17550;45.486;12.222;2023-05-10T06:57:53;13.90;99.90
30825;DHT22;17550;45.486;12.222;2023-05-10T07:00:19;13.80;99.90
30825;DHT22;17550;45.486;12.222;2023-05-10T07:02:45;13.70;99.90
30825;DHT22;17550;45.486;12.222;2023-05-10T07:05:11;13.70;99.90
30825;DHT22;17550;45.486;12.222;2023-05-10T07:07:37;13.70;99.90
30825;DHT22;17550;45.486;12.222;2023-05-10T07:10:03;13.70;99.90
30825;DHT22;17550;45.486;12.222;2023-05-10T07:12:29;13.70;99.90
30825;DHT22;17550;45.486;12.222;2023-05-10T07:14:55;13.70;99.90
30825;DHT22;17550;45.486;12.222;2023-05-10T07:17:21;13.70;99.90
30825;DHT22;17550;45.486;12.222;2023-05-10T07:19:46;13.70;99.90
30825;DHT22;17550;45.486;12.222;2023-05-10T07:22:12;13.60;99.90
30825;DHT22;17550;45.486;12.222;2023-05-10T07:24:38;13.60;99.90
30825;DHT22;17550;45.486;12.222;2023-05-10T07:27:04;13.60;99.90
30825;DHT22;17550;45.486;12.222;2023-05-10T07:29:30;13.50;99.90
30825;DHT22;17550;45.486;12.222;2023-05-10T07:31:55;13.50;99.90
30825;DHT22;17550;45.486;12.222;2023-05-10T07:34:21;13.50;99.90
30825;DHT22;17550;45.486;12.222;2023-05-10T07:36:47;13.40;99.90
30825;DHT22;17550;45.486;12.222;2023-05-10T07:39:13;13.50;99.90
30825;DHT22;17550;45.486;12.222;2023-05-10T07:41:38;13.50;99.90
30825;DHT22;17550;45.486;12.222;2023-05-10T07:44:05;13.50;99.90
30825;DHT22;17550;45.486;12.222;2023-05-10T07:46:31;13.50;99.90
30825;DHT22;17550;45.486;12.222;2023-05-10T07:48:57;13.40;99.90
30825;DHT22;17550;45.486;12.222;2023-05-10T07:51:22;13.50;99.90
30825;DHT22;17550;45.486;12.222;2023-05-10T07:53:48;13.40;99.90
30825;DHT22;17550;45.486;12.222;2023-05-10T07:56:26;13.40;99.90
30825;DHT22;17550;45.486;12.222;2023-05-10T07:58:55;13.40;99.90
30825;DHT22;17550;45.486;12.222;2023-05-10T08:01:21;13.30;99.90
30825;DHT22;17550;45.486;12.222;2023-05-10T08:03:47;13.30;99.90
30825;DHT22;17550;45.486;12.222;2023-05-10T08:06:14;13.30;99.90
30825;DHT22;17550;45.486;12.222;2023-05-10T08:08:41;13.30;99.90
30825;DHT22;17550;45.486;12.222;2023-05-10T08:11:07;13.30;99.90
30825;DHT22;17550;45.486;12.222;2023-05-10T08:13:33;13.30;99.90
30825;DHT22;17550;45.486;12.222;2023-05-10T08:15:59;13.20;99.90
30825;DHT22;17550;45.486;12.222;2023-05-10T08:18:26;13.20;99.90
30825;DHT22;17550;45.486;12.222;2023-05-10T08:20:51;13.20;99.90
30825;DHT22;17550;45.486;12.222;2023-05-10T08:23:17;13.20;99.90
30825;DHT22;17550;45.486;12.222;2023-05-10T08:25:43;13.20;99.90
30825;DHT22;17550;45.486;12.222;2023-05-10T08:28:08;13.30;99.90
30825;DHT22;17550;45.486;12.222;2023-05-10T08:30:34;13.30;99.90
30825;DHT22;17550;45.486;12.222;2023-05-10T08:33:00;13.30;99.90
30825;DHT22;17550;45.486;12.222;2023-05-10T08:35:25;13.20;99.90
30825;DHT22;17550;45.486;12.222;2023-05-10T08:37:51;13.20;99.90
30825;DHT22;17550;45.486;12.222;2023-05-10T08:40:19;13.20;99.90
30825;DHT22;17550;45.486;12.222;2023-05-10T08:42:58;13.20;99.90
30825;DHT22;17550;45.486;12.222;2023-05-10T08:45:24;13.20;99.90
30825;DHT22;17550;45.486;12.222;2023-05-10T08:47:53;13.20;99.90
30825;DHT22;17550;45.486;12.222;2023-05-10T08:50:20;13.30;99.90
30825;DHT22;17550;45.486;12.222;2023-05-10T08:52:48;13.30;99.90
30825;DHT22;17550;45.486;12.222;2023-05-10T08:55:16;13.30;99.90
30825;DHT22;17550;45.486;12.222;2023-05-10T08:57:42;13.40;99.90
30825;DHT22;17550;45.486;12.222;2023-05-10T09:00:08;13.30;99.90
30825;DHT22;17550;45.486;12.222;2023-05-10T09:02:35;13.30;99.90
30825;DHT22;17550;45.486;12.222;2023-05-10T09:05:02;13.30;99.90
30825;DHT22;17550;45.486;12.222;2023-05-10T09:07:30;13.40;99.90
30825;DHT22;17550;45.486;12.222;2023-05-10T09:09:56;13.40;99.90
30825;DHT22;17550;45.486;12.222;2023-05-10T09:12:22;13.40;99.90
30825;DHT22;17550;45.486;12.222;2023-05-10T09:14:49;13.50;99.90
30825;DHT22;17550;45.486;12.222;2023-05-10T09:17:16;13.60;99.90
30825;DHT22;17550;45.486;12.222;2023-05-10T09:19:41;13.60;99.90
30825;DHT22;17550;45.486;12.222;2023-05-10T09:22:07;13.70;99.90
30825;DHT22;17550;45.486;12.222;2023-05-10T09:24:33;13.70;99.90
30825;DHT22;17550;45.486;12.222;2023-05-10T09:26:59;13.80;99.90
30825;DHT22;17550;45.486;12.222;2023-05-10T09:29:25;13.90;99.90
30825;DHT22;17550;45.486;12.222;2023-05-10T09:31:51;13.90;99.90
30825;DHT22;17550;45.486;12.222;2023-05-10T09:34:30;13.90;99.90
30825;DHT22;17550;45.486;12.222;2023-05-10T09:37:00;13.80;99.90
30825;DHT22;17550;45.486;12.222;2023-05-10T09:39:38;13.70;99.90
30825;DHT22;17550;45.486;12.222;2023-05-10T09:42:06;13.70;99.90
30825;DHT22;17550;45.486;12.222;2023-05-10T09:44:33;13.60;99.90
30825;DHT22;17550;45.486;12.222;2023-05-10T09:47:00;13.60;99.90
30825;DHT22;17550;45.486;12.222;2023-05-10T09:49:26;13.50;99.90
30825;DHT22;17550;45.486;12.222;2023-05-10T09:52:02;13.50;99.90
30825;DHT22;17550;45.486;12.222;2023-05-10T09:54:28;13.50;99.90
30825;DHT22;17550;45.486;12.222;2023-05-10T09:56:54;13.40;99.90
30825;DHT22;17550;45.486;12.222;2023-05-10T09:59:20;13.50;99.90
30825;DHT22;17550;45.486;12.222;2023-05-10T10:01:53;13.40;99.90
30825;DHT22;17550;45.486;12.222;2023-05-10T10:04:21;13.50;99.90
30825;DHT22;17550;45.486;12.222;2023-05-10T10:06:47;13.50;99.90
30825;DHT22;17550;45.486;12.222;2023-05-10T10:09:23;13.50;99.90
30825;DHT22;17550;45.486;12.222;2023-05-10T10:11:49;13.50;99.90
30825;DHT22;17550;45.486;12.222;2023-05-10T10:14:21;13.50;99.90
30825;DHT22;17550;45.486;12.222;2023-05-10T10:16:48;13.40;99.90
30825;DHT22;17550;45.486;12.222;2023-05-10T10:19:14;13.40;99.90
30825;DHT22;17550;45.486;12.222;2023-05-10T10:21:40;13.40;99.90
30825;DHT22;17550;45.486;12.222;2023-05-10T10:24:06;13.30;99.90
30825;DHT22;17550;45.486;12.222;2023-05-10T10:26:36;13.30;99.90
30825;DHT22;17550;45.486;12.222;2023-05-10T10:32:03;13.40;99.90
30825;DHT22;17550;45.486;12.222;2023-05-10T10:34:30;13.30;99.90
30825;DHT22;17550;45.486;12.222;2023-05-10T10:36:57;13.40;99.90
30825;DHT22;17550;45.486;12.222;2023-05-10T10:39:26;13.40;99.90
30825;DHT22;17550;45.486;12.222;2023-05-10T10:41:55;13.50;99.90
30825;DHT22;17550;45.486;12.222;2023-05-10T10:52:37;13.50;99.90
30825;DHT22;17550;45.486;12.222;2023-05-10T10:57:50;13.60;99.90
30825;DHT22;17550;45.486;12.222;2023-05-10T11:00:24;13.60;99.90
30825;DHT22;17550;45.486;12.222;2023-05-10T11:02:53;13.60;99.90
30825;DHT22;17550;45.486;12.222;2023-05-10T11:07:58;13.60;99.90
30825;DHT22;17550;45.486;12.222;2023-05-10T11:10:25;13.60;99.90
30825;DHT22;17550;45.486;12.222;2023-05-10T11:13:01;13.70;99.90
30825;DHT22;17550;45.486;12.222;2023-05-10T11:17:59;13.80;99.90
30825;DHT22;17550;45.486;12.222;2023-05-10T11:20:28;13.80;99.90
30825;DHT22;17550;45.486;12.222;2023-05-10T11:23:11;13.90;99.90
30825;DHT22;17550;45.486;12.222;2023-05-10T11:25:42;14.00;99.90
30825;DHT22;17550;45.486;12.222;2023-05-10T11:28:08;13.90;99.90
30825;DHT22;17550;45.486;12.222;2023-05-10T11:30:34;13.90;99.90
30825;DHT22;17550;45.486;12.222;2023-05-10T11:33:01;13.70;99.90
30825;DHT22;17550;45.486;12.222;2023-05-10T11:35:27;13.70;99.90
30825;DHT22;17550;45.486;12.222;2023-05-10T11:37:53;13.60;99.90
30825;DHT22;17550;45.486;12.222;2023-05-10T11:40:21;13.70;99.90
30825;DHT22;17550;45.486;12.222;2023-05-10T11:42:50;13.70;99.90
30825;DHT22;17550;45.486;12.222;2023-05-10T11:45:16;13.60;99.90
30825;DHT22;17550;45.486;12.222;2023-05-10T11:47:41;13.60;99.90
30825;DHT22;17550;45.486;12.222;2023-05-10T11:50:10;13.70;99.90
30825;DHT22;17550;45.486;12.222;2023-05-10T11:52:36;13.70;99.90
30825;DHT22;17550;45.486;12.222;2023-05-10T11:55:05;13.60;99.90
30825;DHT22;17550;45.486;12.222;2023-05-10T11:57:31;13.60;99.90
30825;DHT22;17550;45.486;12.222;2023-05-10T11:59:57;13.60;99.90
30825;DHT22;17550;45.486;12.222;2023-05-10T12:02:23;13.60;99.90
30825;DHT22;17550;45.486;12.222;2023-05-10T12:04:50;13.50;99.90
30825;DHT22;17550;45.486;12.222;2023-05-10T12:07:16;13.50;99.90
30825;DHT22;17550;45.486;12.222;2023-05-10T12:10:01;13.60;99.90
30825;DHT22;17550;45.486;12.222;2023-05-10T12:12:34;13.60;99.90
30825;DHT22;17550;45.486;12.222;2023-05-10T12:15:01;13.60;99.90
30825;DHT22;17550;45.486;12.222;2023-05-10T12:17:29;13.60;99.90
30825;DHT22;17550;45.486;12.222;2023-05-10T12:20:12;13.50;99.90
30825;DHT22;17550;45.486;12.222;2023-05-10T12:22:37;13.60;99.90
30825;DHT22;17550;45.486;12.222;2023-05-10T12:25:03;13.60;99.90
30825;DHT22;17550;45.486;12.222;2023-05-10T12:27:32;13.50;99.90
30825;DHT22;17550;45.486;12.222;2023-05-10T12:29:59;13.50;99.90
30825;DHT22;17550;45.486;12.222;2023-05-10T12:32:45;13.50;99.90
30825;DHT22;17550;45.486;12.222;2023-05-10T12:35:11;13.50;99.90
30825;DHT22;17550;45.486;12.222;2023-05-10T12:37:36;13.50;99.90
30825;DHT22;17550;45.486;12.222;2023-05-10T12:40:08;13.60;99.90
30825;DHT22;17550;45.486;12.222;2023-05-10T12:42:35;13.60;99.90
30825;DHT22;17550;45.486;12.222;2023-05-10T12:45:01;13.70;99.90
30825;DHT22;17550;45.486;12.222;2023-05-10T12:47:28;13.60;99.90
30825;DHT22;17550;45.486;12.222;2023-05-10T12:49:54;13.70;99.90
30825;DHT22;17550;45.486;12.222;2023-05-10T12:52:20;13.70;99.90
30825;DHT22;17550;45.486;12.222;2023-05-10T12:54:46;13.70;99.90
30825;DHT22;17550;45.486;12.222;2023-05-10T12:57:13;13.70;99.90
30825;DHT22;17550;45.486;12.222;2023-05-10T12:59:38;13.70;99.90
30825;DHT22;17550;45.486;12.222;2023-05-10T13:02:05;13.80;99.90
30825;DHT22;17550;45.486;12.222;2023-05-10T13:04:31;13.80;99.90
30825;DHT22;17550;45.486;12.222;2023-05-10T13:06:56;13.80;99.90
30825;DHT22;17550;45.486;12.222;2023-05-10T13:09:27;13.80;99.90
30825;DHT22;17550;45.486;12.222;2023-05-10T13:11:56;13.80;99.90
30825;DHT22;17550;45.486;12.222;2023-05-10T13:14:21;13.80;99.90
30825;DHT22;17550;45.486;12.222;2023-05-10T13:16:47;13.70;99.90
30825;DHT22;17550;45.486;12.222;2023-05-10T13:19:17;13.70;99.90
30825;DHT22;17550;45.486;12.222;2023-05-10T13:21:43;13.60;99.90
30825;DHT22;17550;45.486;12.222;2023-05-10T13:24:10;13.60;99.90
30825;DHT22;17550;45.486;12.222;2023-05-10T13:26:36;13.60;99.90
30825;DHT22;17550;45.486;12.222;2023-05-10T13:29:02;13.50;99.90
30825;DHT22;17550;45.486;12.222;2023-05-10T13:31:28;13.50;99.90
30825;DHT22;17550;45.486;12.222;2023-05-10T13:33:54;13.40;99.90
30825;DHT22;17550;45.486;12.222;2023-05-10T13:36:20;13.50;99.90
30825;DHT22;17550;45.486;12.222;2023-05-10T13:38:46;13.40;99.90
30825;DHT22;17550;45.486;12.222;2023-05-10T13:41:11;13.40;99.90
30825;DHT22;17550;45.486;12.222;2023-05-10T13:43:37;13.50;99.90
30825;DHT22;17550;45.486;12.222;2023-05-10T13:46:03;13.50;99.90
30825;DHT22;17550;45.486;12.222;2023-05-10T13:48:29;13.50;99.90
30825;DHT22;17550;45.486;12.222;2023-05-10T13:50:54;13.50;99.90
30825;DHT22;17550;45.486;12.222;2023-05-10T13:53:20;13.40;99.90
30825;DHT22;17550;45.486;12.222;2023-05-10T13:55:46;13.30;99.90
30825;DHT22;17550;45.486;12.222;2023-05-10T13:58:12;13.30;99.90
30825;DHT22;17550;45.486;12.222;2023-05-10T14:00:38;13.40;99.90
30825;DHT22;17550;45.486;12.222;2023-05-10T14:03:04;13.30;99.90
30825;DHT22;17550;45.486;12.222;2023-05-10T14:05:30;13.40;99.90
30825;DHT22;17550;45.486;12.222;2023-05-10T14:07:56;13.30;99.90
30825;DHT22;17550;45.486;12.222;2023-05-10T14:10:22;13.20;99.90
30825;DHT22;17550;45.486;12.222;2023-05-10T14:12:49;13.20;99.90
30825;DHT22;17550;45.486;12.222;2023-05-10T14:15:15;13.20;99.90
30825;DHT22;17550;45.486;12.222;2023-05-10T14:17:41;13.20;99.90
30825;DHT22;17550;45.486;12.222;2023-05-10T14:20:08;13.30;99.90
30825;DHT22;17550;45.486;12.222;2023-05-10T14:22:34;13.20;99.90
30825;DHT22;17550;45.486;12.222;2023-05-10T14:25:00;13.20;99.90
30825;DHT22;17550;45.486;12.222;2023-05-10T14:27:26;13.20;99.90
30825;DHT22;17550;45.486;12.222;2023-05-10T14:29:52;13.30;99.90
30825;DHT22;17550;45.486;12.222;2023-05-10T14:32:18;13.30;99.90
30825;DHT22;17550;45.486;12.222;2023-05-10T14:34:44;13.30;99.90
30825;DHT22;17550;45.486;12.222;2023-05-10T14:37:11;13.30;99.90
30825;DHT22;17550;45.486;12.222;2023-05-10T14:39:37;13.30;99.90
30825;DHT22;17550;45.486;12.222;2023-05-10T14:42:03;13.30;99.90
30825;DHT22;17550;45.486;12.222;2023-05-10T14:44:29;13.20;99.90
30825;DHT22;17550;45.486;12.222;2023-05-10T14:46:55;13.20;99.90
30825;DHT22;17550;45.486;12.222;2023-05-10T14:49:22;13.20;99.90
30825;DHT22;17550;45.486;12.222;2023-05-10T14:51:48;13.20;99.90
30825;DHT22;17550;45.486;12.222;2023-05-10T14:54:14;13.30;99.90
30825;DHT22;17550;45.486;12.222;2023-05-10T14:56:40;13.30;99.90
30825;DHT22;17550;45.486;12.222;2023-05-10T14:59:07;13.30;99.90
30825;DHT22;17550;45.486;12.222;2023-05-10T15:01:33;13.30;99.90
30825;DHT22;17550;45.486;12.222;2023-05-10T15:04:03;13.30;99.90
30825;DHT22;17550;45.486;12.222;2023-05-10T15:06:33;13.30;99.90
30825;DHT22;17550;45.486;12.222;2023-05-10T15:09:00;13.30;99.90
30825;DHT22;17550;45.486;12.222;2023-05-10T15:11:26;13.20;99.90
30825;DHT22;17550;45.486;12.222;2023-05-10T15:13:51;13.20;99.90
30825;DHT22;17550;45.486;12.222;2023-05-10T15:16:17;13.10;99.90
30825;DHT22;17550;45.486;12.222;2023-05-10T15:18:43;13.20;99.90
30825;DHT22;17550;45.486;12.222;2023-05-10T15:21:09;13.20;99.90
30825;DHT22;17550;45.486;12.222;2023-05-10T15:23:35;13.20;99.90
30825;DHT22;17550;45.486;12.222;2023-05-10T15:26:01;13.10;99.90
30825;DHT22;17550;45.486;12.222;2023-05-10T15:28:28;13.10;99.90
30825;DHT22;17550;45.486;12.222;2023-05-10T15:30:54;13.20;99.90
30825;DHT22;17550;45.486;12.222;2023-05-10T15:33:19;13.10;99.90
30825;DHT22;17550;45.486;12.222;2023-05-10T15:35:45;13.10;99.90
30825;DHT22;17550;45.486;12.222;2023-05-10T15:38:11;13.10;99.90
30825;DHT22;17550;45.486;12.222;2023-05-10T15:40:36;13.10;99.90
30825;DHT22;17550;45.486;12.222;2023-05-10T15:43:02;13.10;99.90
30825;DHT22;17550;45.486;12.222;2023-05-10T15:45:28;13.10;99.90
30825;DHT22;17550;45.486;12.222;2023-05-10T15:47:54;13.10;99.90
30825;DHT22;17550;45.486;12.222;2023-05-10T15:50:19;13.00;99.90
30825;DHT22;17550;45.486;12.222;2023-05-10T15:52:45;13.00;99.90
30825;DHT22;17550;45.486;12.222;2023-05-10T15:55:11;13.00;99.90